sensor_id;sensor_type;location;lat;lon;timestamp;temperature;humidity
28725;DHT22;43472;48.980;9.646;2022-07-29T00:01:58;18.40;99.90
28725;DHT22;43472;48.980;9.646;2022-07-29T00:06:59;18.50;99.90
28725;DHT22;43472;48.980;9.646;2022-07-29T00:12:01;18.40;99.90
28725;DHT22;43472;48.980;9.646;2022-07-29T00:17:03;18.40;99.90
28725;DHT22;43472;48.980;9.646;2022-07-29T00:22:05;18.10;99.90
28725;DHT22;43472;48.980;9.646;2022-07-29T00:27:07;18.10;99.90
28725;DHT22;43472;48.980;9.646;2022-07-29T00:32:09;18.00;99.90
28725;DHT22;43472;48.980;9.646;2022-07-29T00:37:10;17.70;99.90
28725;DHT22;43472;48.980;9.646;2022-07-29T00:42:12;18.00;99.90
28725;DHT22;43472;48.980;9.646;2022-07-29T00:47:14;18.00;99.90
28725;DHT22;43472;48.980;9.646;2022-07-29T00:52:16;17.90;99.90
28725;DHT22;43472;48.980;9.646;2022-07-29T00:57:17;17.90;99.90
28725;DHT22;43472;48.980;9.646;2022-07-29T01:02:19;17.90;99.90
28725;DHT22;43472;48.980;9.646;2022-07-29T01:07:21;17.90;99.90
28725;DHT22;43472;48.980;9.646;2022-07-29T01:12:25;18.10;99.90
28725;DHT22;43472;48.980;9.646;2022-07-29T01:17:36;17.80;99.90
28725;DHT22;43472;48.980;9.646;2022-07-29T01:28:33;17.70;99.90
28725;DHT22;43472;48.980;9.646;2022-07-29T01:33:43;17.60;99.90
28725;DHT22;43472;48.980;9.646;2022-07-29T01:39:10;17.70;99.90
28725;DHT22;43472;48.980;9.646;2022-07-29T01:54:55;17.40;99.90
28725;DHT22;43472;48.980;9.646;2022-07-29T01:59:59;17.10;99.90
28725;DHT22;43472;48.980;9.646;2022-07-29T02:05:03;17.10;99.90
28725;DHT22;43472;48.980;9.646;2022-07-29T02:10:07;17.20;99.90
28725;DHT22;43472;48.980;9.646;2022-07-29T02:15:11;17.00;99.90
28725;DHT22;43472;48.980;9.646;2022-07-29T02:20:16;17.10;99.90
28725;DHT22;43472;48.980;9.646;2022-07-29T02:25:18;16.90;99.90
28725;DHT22;43472;48.980;9.646;2022-07-29T02:30:22;17.00;99.90
28725;DHT22;43472;48.980;9.646;2022-07-29T02:35:25;16.00;99.90
28725;DHT22;43472;48.980;9.646;2022-07-29T02:40:27;16.70;99.90
28725;DHT22;43472;48.980;9.646;2022-07-29T02:45:29;16.90;99.90
28725;DHT22;43472;48.980;9.646;2022-07-29T02:50:38;16.80;99.90
28725;DHT22;43472;48.980;9.646;2022-07-29T03:01:03;16.80;99.90
28725;DHT22;43472;48.980;9.646;2022-07-29T03:06:07;16.60;99.90
28725;DHT22;43472;48.980;9.646;2022-07-29T03:11:29;16.70;99.90
28725;DHT22;43472;48.980;9.646;2022-07-29T03:16:51;16.60;99.90
28725;DHT22;43472;48.980;9.646;2022-07-29T03:21:56;16.70;99.90
28725;DHT22;43472;48.980;9.646;2022-07-29T03:26:58;16.70;99.90
28725;DHT22;43472;48.980;9.646;2022-07-29T03:32:02;16.60;99.90
28725;DHT22;43472;48.980;9.646;2022-07-29T03:37:09;16.70;99.90
28725;DHT22;43472;48.980;9.646;2022-07-29T03:42:12;16.40;99.90
28725;DHT22;43472;48.980;9.646;2022-07-29T03:47:17;16.40;99.90
28725;DHT22;43472;48.980;9.646;2022-07-29T03:52:22;16.40;99.90
28725;DHT22;43472;48.980;9.646;2022-07-29T03:57:27;16.30;99.90
28725;DHT22;43472;48.980;9.646;2022-07-29T04:02:30;16.30;99.90
28725;DHT22;43472;48.980;9.646;2022-07-29T04:07:33;16.40;99.90
28725;DHT22;43472;48.980;9.646;2022-07-29T04:12:35;16.30;99.90
28725;DHT22;43472;48.980;9.646;2022-07-29T04:17:36;16.50;99.90
28725;DHT22;43472;48.980;9.646;2022-07-29T04:22:41;16.40;99.90
28725;DHT22;43472;48.980;9.646;2022-07-29T04:27:43;16.60;99.90
28725;DHT22;43472;48.980;9.646;2022-07-29T04:33:02;16.40;99.90
28725;DHT22;43472;48.980;9.646;2022-07-29T04:38:05;16.40;99.90
28725;DHT22;43472;48.980;9.646;2022-07-29T04:43:16;16.50;99.90
28725;DHT22;43472;48.980;9.646;2022-07-29T04:48:23;16.50;99.90
28725;DHT22;43472;48.980;9.646;2022-07-29T04:53:29;16.60;99.90
28725;DHT22;43472;48.980;9.646;2022-07-29T04:58:32;16.70;99.90
28725;DHT22;43472;48.980;9.646;2022-07-29T05:03:35;16.70;99.90
28725;DHT22;43472;48.980;9.646;2022-07-29T05:08:37;16.80;99.90
28725;DHT22;43472;48.980;9.646;2022-07-29T05:13:42;16.70;99.90
28725;DHT22;43472;48.980;9.646;2022-07-29T05:18:47;13.80;99.90
28725;DHT22;43472;48.980;9.646;2022-07-29T05:23:49;16.80;99.90
28725;DHT22;43472;48.980;9.646;2022-07-29T05:28:51;16.80;99.90
28725;DHT22;43472;48.980;9.646;2022-07-29T05:33:52;16.70;99.90
28725;DHT22;43472;48.980;9.646;2022-07-29T05:38:54;17.20;99.90
28725;DHT22;43472;48.980;9.646;2022-07-29T05:43:56;17.20;99.90
28725;DHT22;43472;48.980;9.646;2022-07-29T05:48:58;17.30;99.90
28725;DHT22;43472;48.980;9.646;2022-07-29T05:54:00;17.40;99.90
28725;DHT22;43472;48.980;9.646;2022-07-29T05:59:02;17.50;99.90
28725;DHT22;43472;48.980;9.646;2022-07-29T06:04:05;17.60;99.90
28725;DHT22;43472;48.980;9.646;2022-07-29T06:09:07;17.90;99.90
28725;DHT22;43472;48.980;9.646;2022-07-29T06:14:13;18.00;99.90
28725;DHT22;43472;48.980;9.646;2022-07-29T06:19:15;18.20;99.90
28725;DHT22;43472;48.980;9.646;2022-07-29T06:24:17;18.50;99.90
28725;DHT22;43472;48.980;9.646;2022-07-29T06:29:20;18.50;99.90
28725;DHT22;43472;48.980;9.646;2022-07-29T06:34:21;18.60;99.90
28725;DHT22;43472;48.980;9.646;2022-07-29T06:39:23;18.50;99.90
28725;DHT22;43472;48.980;9.646;2022-07-29T06:44:25;18.80;99.90
28725;DHT22;43472;48.980;9.646;2022-07-29T06:49:27;19.10;99.90
28725;DHT22;43472;48.980;9.646;2022-07-29T06:54:29;19.40;99.90
28725;DHT22;43472;48.980;9.646;2022-07-29T06:59:31;19.80;99.90
28725;DHT22;43472;48.980;9.646;2022-07-29T07:04:36;19.60;99.90
28725;DHT22;43472;48.980;9.646;2022-07-29T07:09:38;20.00;99.90
28725;DHT22;43472;48.980;9.646;2022-07-29T07:14:41;20.30;99.90
28725;DHT22;43472;48.980;9.646;2022-07-29T07:19:43;20.70;99.90
28725;DHT22;43472;48.980;9.646;2022-07-29T07:24:45;21.00;99.90
28725;DHT22;43472;48.980;9.646;2022-07-29T07:29:46;21.40;99.90
28725;DHT22;43472;48.980;9.646;2022-07-29T07:34:48;21.60;99.90
28725;DHT22;43472;48.980;9.646;2022-07-29T07:39:53;21.80;99.90
28725;DHT22;43472;48.980;9.646;2022-07-29T07:44:55;22.00;99.90
28725;DHT22;43472;48.980;9.646;2022-07-29T07:50:13;22.30;99.90
28725;DHT22;43472;48.980;9.646;2022-07-29T07:55:19;22.50;99.90
28725;DHT22;43472;48.980;9.646;2022-07-29T08:00:21;22.30;99.90
28725;DHT22;43472;48.980;9.646;2022-07-29T08:05:24;22.60;99.90
28725;DHT22;43472;48.980;9.646;2022-07-29T08:10:26;22.80;99.90
28725;DHT22;43472;48.980;9.646;2022-07-29T08:15:46;22.60;99.90
28725;DHT22;43472;48.980;9.646;2022-07-29T08:20:48;22.60;99.90
28725;DHT22;43472;48.980;9.646;2022-07-29T08:25:50;22.70;99.90
28725;DHT22;43472;48.980;9.646;2022-07-29T08:30:52;22.70;99.90
28725;DHT22;43472;48.980;9.646;2022-07-29T08:35:54;22.40;99.90
28725;DHT22;43472;48.980;9.646;2022-07-29T08:40:55;22.00;99.90
28725;DHT22;43472;48.980;9.646;2022-07-29T08:45:57;22.50;99.90
28725;DHT22;43472;48.980;9.646;2022-07-29T08:51:00;22.50;99.90
28725;DHT22;43472;48.980;9.646;2022-07-29T08:56:05;22.40;99.90
28725;DHT22;43472;48.980;9.646;2022-07-29T09:01:07;22.70;99.90
28725;DHT22;43472;48.980;9.646;2022-07-29T09:06:14;22.10;99.90
28725;DHT22;43472;48.980;9.646;2022-07-29T09:11:18;22.10;99.90
28725;DHT22;43472;48.980;9.646;2022-07-29T09:16:20;22.10;99.90
28725;DHT22;43472;48.980;9.646;2022-07-29T09:21:42;22.10;99.90
28725;DHT22;43472;48.980;9.646;2022-07-29T09:26:59;22.80;99.90
28725;DHT22;43472;48.980;9.646;2022-07-29T09:32:00;22.80;99.90
28725;DHT22;43472;48.980;9.646;2022-07-29T09:37:07;23.10;99.90
28725;DHT22;43472;48.980;9.646;2022-07-29T09:42:10;23.70;99.90
28725;DHT22;43472;48.980;9.646;2022-07-29T09:47:12;23.70;99.90
28725;DHT22;43472;48.980;9.646;2022-07-29T09:52:14;23.90;99.90
28725;DHT22;43472;48.980;9.646;2022-07-29T09:57:27;23.90;99.90
28725;DHT22;43472;48.980;9.646;2022-07-29T10:02:33;24.00;99.90
28725;DHT22;43472;48.980;9.646;2022-07-29T10:07:48;25.10;99.90
28725;DHT22;43472;48.980;9.646;2022-07-29T10:13:03;25.00;99.90
28725;DHT22;43472;48.980;9.646;2022-07-29T10:18:13;25.50;99.90
28725;DHT22;43472;48.980;9.646;2022-07-29T10:23:15;25.60;99.90
28725;DHT22;43472;48.980;9.646;2022-07-29T10:28:17;25.70;99.90
28725;DHT22;43472;48.980;9.646;2022-07-29T10:39:19;26.70;99.90
28725;DHT22;43472;48.980;9.646;2022-07-29T10:44:42;26.20;99.90
28725;DHT22;43472;48.980;9.646;2022-07-29T10:49:56;26.80;99.90
28725;DHT22;43472;48.980;9.646;2022-07-29T10:55:01;24.30;99.90
28725;DHT22;43472;48.980;9.646;2022-07-29T11:05:13;26.20;99.90
28725;DHT22;43472;48.980;9.646;2022-07-29T11:15:21;25.70;99.90
28725;DHT22;43472;48.980;9.646;2022-07-29T11:20:44;25.50;99.90
28725;DHT22;43472;48.980;9.646;2022-07-29T11:31:45;24.90;99.90
28725;DHT22;43472;48.980;9.646;2022-07-29T11:47:36;24.70;99.90
28725;DHT22;43472;48.980;9.646;2022-07-29T11:52:58;24.40;99.90
28725;DHT22;43472;48.980;9.646;2022-07-29T11:58:01;24.20;99.90
28725;DHT22;43472;48.980;9.646;2022-07-29T12:03:09;24.10;99.90
28725;DHT22;43472;48.980;9.646;2022-07-29T12:08:17;24.00;99.90
28725;DHT22;43472;48.980;9.646;2022-07-29T12:13:23;24.10;99.90
28725;DHT22;43472;48.980;9.646;2022-07-29T12:18:38;24.10;99.90
28725;DHT22;43472;48.980;9.646;2022-07-29T12:23:55;24.20;99.90
28725;DHT22;43472;48.980;9.646;2022-07-29T12:29:06;24.50;99.90
28725;DHT22;43472;48.980;9.646;2022-07-29T12:34:16;24.90;99.90
28725;DHT22;43472;48.980;9.646;2022-07-29T12:39:18;24.90;99.90
28725;DHT22;43472;48.980;9.646;2022-07-29T12:44:20;24.60;99.90
28725;DHT22;43472;48.980;9.646;2022-07-29T12:49:22;24.90;99.90
28725;DHT22;43472;48.980;9.646;2022-07-29T12:54:24;24.80;99.90
28725;DHT22;43472;48.980;9.646;2022-07-29T12:59:26;24.40;99.90
28725;DHT22;43472;48.980;9.646;2022-07-29T13:04:32;24.30;99.90
28725;DHT22;43472;48.980;9.646;2022-07-29T13:14:47;24.20;99.90
28725;DHT22;43472;48.980;9.646;2022-07-29T13:20:04;24.20;99.90
28725;DHT22;43472;48.980;9.646;2022-07-29T13:25:09;24.60;99.90
28725;DHT22;43472;48.980;9.646;2022-07-29T13:30:12;24.50;99.90
28725;DHT22;43472;48.980;9.646;2022-07-29T13:35:14;24.60;99.90
28725;DHT22;43472;48.980;9.646;2022-07-29T13:40:16;24.10;99.90
28725;DHT22;43472;48.980;9.646;2022-07-29T13:45:18;24.00;99.90
28725;DHT22;43472;48.980;9.646;2022-07-29T13:50:20;24.10;99.90
28725;DHT22;43472;48.980;9.646;2022-07-29T13:55:22;24.50;99.90
28725;DHT22;43472;48.980;9.646;2022-07-29T14:00:24;24.30;99.90
28725;DHT22;43472;48.980;9.646;2022-07-29T14:05:26;24.20;99.90
28725;DHT22;43472;48.980;9.646;2022-07-29T14:10:27;23.70;99.90
28725;DHT22;43472;48.980;9.646;2022-07-29T14:15:29;23.90;99.90
28725;DHT22;43472;48.980;9.646;2022-07-29T14:20:31;24.00;99.90
28725;DHT22;43472;48.980;9.646;2022-07-29T14:25:33;23.40;99.90
28725;DHT22;43472;48.980;9.646;2022-07-29T14:30:34;23.40;99.90
28725;DHT22;43472;48.980;9.646;2022-07-29T14:35:36;24.00;99.90
28725;DHT22;43472;48.980;9.646;2022-07-29T14:40:38;23.30;99.90
28725;DHT22;43472;48.980;9.646;2022-07-29T14:45:40;23.40;99.90
28725;DHT22;43472;48.980;9.646;2022-07-29T14:50:42;23.30;99.90
28725;DHT22;43472;48.980;9.646;2022-07-29T14:55:44;23.40;99.90
28725;DHT22;43472;48.980;9.646;2022-07-29T15:00:46;23.60;99.90
28725;DHT22;43472;48.980;9.646;2022-07-29T15:05:48;23.50;99.90
28725;DHT22;43472;48.980;9.646;2022-07-29T15:10:49;23.60;99.90
28725;DHT22;43472;48.980;9.646;2022-07-29T15:15:51;23.50;99.90
28725;DHT22;43472;48.980;9.646;2022-07-29T15:21:00;23.30;99.90
28725;DHT22;43472;48.980;9.646;2022-07-29T15:26:04;23.40;99.90
28725;DHT22;43472;48.980;9.646;2022-07-29T15:31:05;23.40;99.90
28725;DHT22;43472;48.980;9.646;2022-07-29T15:36:07;23.50;99.90
28725;DHT22;43472;48.980;9.646;2022-07-29T15:41:12;23.50;99.90
28725;DHT22;43472;48.980;9.646;2022-07-29T15:46:17;23.40;99.90
28725;DHT22;43472;48.980;9.646;2022-07-29T15:51:37;23.50;99.90
28725;DHT22;43472;48.980;9.646;2022-07-29T15:56:39;23.50;99.90
28725;DHT22;43472;48.980;9.646;2022-07-29T16:01:41;23.50;99.90
28725;DHT22;43472;48.980;9.646;2022-07-29T16:06:46;23.40;99.90
28725;DHT22;43472;48.980;9.646;2022-07-29T16:11:48;23.40;99.90
28725;DHT22;43472;48.980;9.646;2022-07-29T16:16:51;23.40;99.90
28725;DHT22;43472;48.980;9.646;2022-07-29T16:21:53;23.30;99.90
28725;DHT22;43472;48.980;9.646;2022-07-29T16:27:00;23.60;99.90
28725;DHT22;43472;48.980;9.646;2022-07-29T16:32:03;23.20;99.90
28725;DHT22;43472;48.980;9.646;2022-07-29T16:37:05;23.20;99.90
28725;DHT22;43472;48.980;9.646;2022-07-29T16:42:07;23.40;99.90
28725;DHT22;43472;48.980;9.646;2022-07-29T16:47:10;23.40;99.90
28725;DHT22;43472;48.980;9.646;2022-07-29T16:52:12;23.60;99.90
28725;DHT22;43472;48.980;9.646;2022-07-29T16:57:14;23.40;99.90
28725;DHT22;43472;48.980;9.646;2022-07-29T17:02:16;23.40;99.90
28725;DHT22;43472;48.980;9.646;2022-07-29T17:07:18;23.40;99.90
28725;DHT22;43472;48.980;9.646;2022-07-29T17:12:20;23.30;99.90
28725;DHT22;43472;48.980;9.646;2022-07-29T17:17:22;23.40;99.90
28725;DHT22;43472;48.980;9.646;2022-07-29T17:22:43;23.40;99.90
28725;DHT22;43472;48.980;9.646;2022-07-29T17:27:45;23.30;99.90
28725;DHT22;43472;48.980;9.646;2022-07-29T17:32:47;23.20;99.90
28725;DHT22;43472;48.980;9.646;2022-07-29T17:37:49;23.40;99.90
28725;DHT22;43472;48.980;9.646;2022-07-29T17:42:51;23.30;99.90
28725;DHT22;43472;48.980;9.646;2022-07-29T17:47:52;23.40;99.90
28725;DHT22;43472;48.980;9.646;2022-07-29T17:52:54;23.30;99.90
28725;DHT22;43472;48.980;9.646;2022-07-29T17:57:56;23.40;99.90
28725;DHT22;43472;48.980;9.646;2022-07-29T18:03:00;23.30;99.90
28725;DHT22;43472;48.980;9.646;2022-07-29T18:08:02;22.30;99.90
28725;DHT22;43472;48.980;9.646;2022-07-29T18:13:04;22.90;99.90
28725;DHT22;43472;48.980;9.646;2022-07-29T18:18:06;22.80;99.90
28725;DHT22;43472;48.980;9.646;2022-07-29T18:23:08;22.80;99.90
28725;DHT22;43472;48.980;9.646;2022-07-29T18:28:10;22.80;99.90
28725;DHT22;43472;48.980;9.646;2022-07-29T18:33:12;22.70;99.90
28725;DHT22;43472;48.980;9.646;2022-07-29T18:38:22;22.80;99.90
28725;DHT22;43472;48.980;9.646;2022-07-29T18:43:24;22.50;99.90
28725;DHT22;43472;48.980;9.646;2022-07-29T18:48:26;22.40;99.90
28725;DHT22;43472;48.980;9.646;2022-07-29T18:53:27;22.20;99.90
28725;DHT22;43472;48.980;9.646;2022-07-29T18:58:29;22.00;99.90
28725;DHT22;43472;48.980;9.646;2022-07-29T19:03:33;21.90;99.90
28725;DHT22;43472;48.980;9.646;2022-07-29T19:08:35;21.80;99.90
28725;DHT22;43472;48.980;9.646;2022-07-29T19:13:37;21.60;99.90
28725;DHT22;43472;48.980;9.646;2022-07-29T19:18:39;21.60;99.90
28725;DHT22;43472;48.980;9.646;2022-07-29T19:23:41;21.70;99.90
28725;DHT22;43472;48.980;9.646;2022-07-29T19:29:03;21.50;99.90
28725;DHT22;43472;48.980;9.646;2022-07-29T19:34:06;21.50;99.90
28725;DHT22;43472;48.980;9.646;2022-07-29T19:39:07;21.40;99.90
28725;DHT22;43472;48.980;9.646;2022-07-29T19:44:09;21.30;99.90
28725;DHT22;43472;48.980;9.646;2022-07-29T19:49:12;21.60;99.90
28725;DHT22;43472;48.980;9.646;2022-07-29T19:54:14;21.50;99.90
28725;DHT22;43472;48.980;9.646;2022-07-29T19:59:18;21.50;99.90
28725;DHT22;43472;48.980;9.646;2022-07-29T20:04:25;21.50;99.90
28725;DHT22;43472;48.980;9.646;2022-07-29T20:09:26;21.40;99.90
28725;DHT22;43472;48.980;9.646;2022-07-29T20:14:28;21.50;99.90
28725;DHT22;43472;48.980;9.646;2022-07-29T20:19:30;21.40;99.90
28725;DHT22;43472;48.980;9.646;2022-07-29T20:24:33;21.30;99.90
28725;DHT22;43472;48.980;9.646;2022-07-29T20:29:36;22.70;99.90
28725;DHT22;43472;48.980;9.646;2022-07-29T20:34:37;20.60;99.90
28725;DHT22;43472;48.980;9.646;2022-07-29T20:39:41;20.70;99.90
28725;DHT22;43472;48.980;9.646;2022-07-29T20:44:43;20.30;99.90
28725;DHT22;43472;48.980;9.646;2022-07-29T20:49:45;20.20;99.90
28725;DHT22;43472;48.980;9.646;2022-07-29T20:54:46;20.10;99.90
28725;DHT22;43472;48.980;9.646;2022-07-29T20:59:49;19.80;99.90
28725;DHT22;43472;48.980;9.646;2022-07-29T21:04:51;19.80;99.90
28725;DHT22;43472;48.980;9.646;2022-07-29T21:09:53;19.80;99.90
28725;DHT22;43472;48.980;9.646;2022-07-29T21:14:55;19.60;99.90
28725;DHT22;43472;48.980;9.646;2022-07-29T21:19:58;19.70;99.90
28725;DHT22;43472;48.980;9.646;2022-07-29T21:24:59;19.60;99.90
28725;DHT22;43472;48.980;9.646;2022-07-29T21:30:03;19.60;99.90
28725;DHT22;43472;48.980;9.646;2022-07-29T21:35:05;19.50;99.90
28725;DHT22;43472;48.980;9.646;2022-07-29T21:40:26;19.30;99.90
28725;DHT22;43472;48.980;9.646;2022-07-29T21:45:28;19.40;99.90
28725;DHT22;43472;48.980;9.646;2022-07-29T21:50:30;19.20;99.90
28725;DHT22;43472;48.980;9.646;2022-07-29T21:55:32;19.40;99.90
28725;DHT22;43472;48.980;9.646;2022-07-29T22:00:34;19.20;99.90
28725;DHT22;43472;48.980;9.646;2022-07-29T22:05:36;19.10;99.90
28725;DHT22;43472;48.980;9.646;2022-07-29T22:10:38;19.00;99.90
28725;DHT22;43472;48.980;9.646;2022-07-29T22:15:39;19.00;99.90
28725;DHT22;43472;48.980;9.646;2022-07-29T22:20:48;18.90;99.90
28725;DHT22;43472;48.980;9.646;2022-07-29T22:25:50;18.90;99.90
28725;DHT22;43472;48.980;9.646;2022-07-29T22:30:52;18.80;99.90
28725;DHT22;43472;48.980;9.646;2022-07-29T22:35:54;18.70;99.90
28725;DHT22;43472;48.980;9.646;2022-07-29T22:40:55;18.70;99.90
28725;DHT22;43472;48.980;9.646;2022-07-29T22:46:02;18.60;99.90
28725;DHT22;43472;48.980;9.646;2022-07-29T22:51:03;18.60;99.90
28725;DHT22;43472;48.980;9.646;2022-07-29T22:56:05;18.50;99.90
28725;DHT22;43472;48.980;9.646;2022-07-29T23:01:07;18.20;99.90
28725;DHT22;43472;48.980;9.646;2022-07-29T23:06:09;18.20;99.90
28725;DHT22;43472;48.980;9.646;2022-07-29T23:11:11;18.20;99.90
28725;DHT22;43472;48.980;9.646;2022-07-29T23:16:13;18.40;99.90
28725;DHT22;43472;48.980;9.646;2022-07-29T23:21:27;18.20;99.90
28725;DHT22;43472;48.980;9.646;2022-07-29T23:26:29;18.10;99.90
28725;DHT22;43472;48.980;9.646;2022-07-29T23:31:32;17.80;99.90
28725;DHT22;43472;48.980;9.646;2022-07-29T23:36:42;17.80;99.90
28725;DHT22;43472;48.980;9.646;2022-07-29T23:41:44;18.00;99.90
28725;DHT22;43472;48.980;9.646;2022-07-29T23:46:45;18.00;99.90
28725;DHT22;43472;48.980;9.646;2022-07-29T23:51:47;17.80;99.90
28725;DHT22;43472;48.980;9.646;2022-07-29T23:56:49;17.60;99.90
